createdAt,value
2019-02-28T00:00:53.302Z,7.91
2019-02-28T00:01:53.007Z,7.91
2019-02-28T00:02:55.526Z,7.91
2019-02-28T00:03:59.820Z,7.81
2019-02-28T00:05:05.739Z,7.85
2019-02-28T00:05:12.829Z,7.9
2019-02-28T00:06:13.637Z,7.93
2019-02-28T00:07:19.642Z,7.95
2019-02-28T00:08:19.599Z,7.9
2019-02-28T00:09:20.555Z,7.93
2019-02-28T00:10:21.237Z,8.01
2019-02-28T00:11:21.361Z,7.88
2019-02-28T00:12:22.322Z,7.95
2019-02-28T00:13:23.473Z,7.84
2019-02-28T00:14:23.887Z,7.84
2019-02-28T00:15:24.397Z,7.88
2019-02-28T00:16:25.216Z,7.9
2019-02-28T00:17:26.220Z,7.95
2019-02-28T00:18:27.642Z,7.95
2019-02-28T00:19:28.445Z,7.9
2019-02-28T00:20:33.348Z,8.03
2019-02-28T00:20:41.899Z,8.02
2019-02-28T00:21:42.460Z,8.09
2019-02-28T00:22:42.864Z,8.03
2019-02-28T00:22:54.914Z,8.09
2019-02-28T00:23:58.589Z,8.08
2019-02-28T00:25:05.829Z,8.08
2019-02-28T00:25:11.530Z,8.09
2019-02-28T00:26:13.460Z,8.08
2019-02-28T00:27:14.717Z,8.16
2019-02-28T00:27:26.198Z,8.13
2019-02-28T00:28:28.324Z,8.16
2019-02-28T00:29:28.291Z,8.14
2019-02-28T00:29:40.329Z,8.16
2019-02-28T00:30:42.438Z,8.16
2019-02-28T00:31:49.251Z,8.14
2019-02-28T00:31:57.171Z,8.17
2019-02-28T00:33:01.067Z,8.17
2019-02-28T00:34:06.544Z,8.27
2019-02-28T00:35:06.224Z,8.26
2019-02-28T00:35:18.276Z,8.32
2019-02-28T00:36:20.950Z,8.36
2019-02-28T00:37:24.615Z,8.35
2019-02-28T00:38:22.823Z,8.31
2019-02-28T00:39:23.241Z,8.28
2019-02-28T00:40:24.645Z,8.21
2019-02-28T00:41:25.880Z,8.13
2019-02-28T00:42:26.286Z,8.11
2019-02-28T00:43:27.298Z,8.14
2019-02-28T00:44:32.381Z,8.11
2019-02-28T00:45:38.317Z,8.13
2019-02-28T00:45:45.116Z,8.08
2019-02-28T00:46:46.632Z,8.02
2019-02-28T00:47:49.357Z,8.02
2019-02-28T00:48:54.157Z,7.95
2019-02-28T00:49:50.873Z,8.05
2019-02-28T00:50:50.830Z,7.91
2019-02-28T00:51:52.536Z,7.96
2019-02-28T00:52:52.940Z,8.03
2019-02-28T00:53:53.901Z,8.01
2019-02-28T00:54:54.862Z,7.88
2019-02-28T00:55:56.382Z,7.95
2019-02-28T00:56:57.203Z,7.9
2019-02-28T00:57:58.198Z,7.99
2019-02-28T00:59:02.208Z,7.99
2019-02-28T00:59:58.333Z,7.91
2019-02-28T01:00:10.938Z,7.85
2019-02-28T01:01:13.353Z,7.93
2019-02-28T01:02:17.562Z,7.9
2019-02-28T01:03:14.940Z,7.83
2019-02-28T01:04:15.901Z,7.87
2019-02-28T01:05:16.950Z,7.95
2019-02-28T01:06:17.631Z,7.88
2019-02-28T01:07:19.037Z,7.9
2019-02-28T01:08:24.007Z,7.95
2019-02-28T01:09:23.689Z,7.93
2019-02-28T01:09:36.459Z,7.88
2019-02-28T01:10:41.151Z,7.8
2019-02-28T01:11:46.256Z,7.8
2019-02-28T01:12:42.736Z,7.8
2019-02-28T01:13:43.861Z,7.78
2019-02-28T01:14:45.102Z,7.85
2019-02-28T01:15:46.900Z,7.88
2019-02-28T01:16:53.683Z,7.84
2019-02-28T01:16:59.642Z,7.9
2019-02-28T01:18:03.065Z,7.9
2019-02-28T01:19:08.611Z,7.93
2019-02-28T01:19:17.560Z,7.85
2019-02-28T01:20:18.575Z,8.01
2019-02-28T01:21:23.603Z,7.84
2019-02-28T01:21:30.859Z,7.88
2019-02-28T01:22:31.387Z,7.95
2019-02-28T01:23:31.513Z,8.01
2019-02-28T01:24:36.708Z,8.06
2019-02-28T01:25:41.877Z,8.09
2019-02-28T01:25:48.160Z,8.03
2019-02-28T01:26:48.989Z,8.06
2019-02-28T01:27:52.390Z,8.02
2019-02-28T01:28:50.602Z,7.98
2019-02-28T01:29:51.299Z,7.93
2019-02-28T01:30:51.982Z,7.96
2019-02-28T01:31:52.107Z,8.02
2019-02-28T01:32:52.788Z,7.88
2019-02-28T01:33:59.848Z,7.88
2019-02-28T01:34:05.966Z,7.93
2019-02-28T01:35:08.671Z,7.98
2019-02-28T01:36:08.075Z,7.93
2019-02-28T01:36:20.402Z,7.91
2019-02-28T01:37:22.941Z,7.85
2019-02-28T01:38:25.916Z,7.91
2019-02-28T01:39:26.050Z,7.87
2019-02-28T01:40:26.934Z,7.91
2019-02-28T01:41:28.063Z,7.87
2019-02-28T01:42:29.027Z,7.88
2019-02-28T01:43:30.784Z,7.87
2019-02-28T01:44:37.477Z,7.87
2019-02-28T01:44:43.579Z,7.84
2019-02-28T01:45:45.226Z,7.84
2019-02-28T01:46:49.309Z,7.88
2019-02-28T01:47:46.088Z,7.91
2019-02-28T01:48:46.491Z,7.81
2019-02-28T01:49:47.176Z,7.88
2019-02-28T01:50:47.852Z,7.87
2019-02-28T01:51:48.533Z,7.87
2019-02-28T01:52:49.490Z,7.81
2019-02-28T01:53:55.334Z,7.81
2019-02-28T01:54:03.940Z,7.81
2019-02-28T01:55:04.593Z,7.72
2019-02-28T01:56:05.274Z,7.72
2019-02-28T01:57:10.551Z,7.75
2019-02-28T01:58:07.228Z,7.77
2019-02-28T01:59:07.353Z,7.66
2019-02-28T02:00:07.755Z,7.67
2019-02-28T02:01:08.881Z,7.7
2019-02-28T02:02:09.283Z,7.69
2019-02-28T02:03:11.316Z,7.59
2019-02-28T02:04:14.333Z,7.59
2019-02-28T02:05:19.309Z,7.59
2019-02-28T02:06:18.712Z,7.66
2019-02-28T02:06:32.058Z,7.58
2019-02-28T02:07:34.772Z,7.62
2019-02-28T02:08:39.199Z,7.67
2019-02-28T02:09:35.938Z,7.66
2019-02-28T02:10:36.896Z,7.74
2019-02-28T02:11:37.130Z,7.75
2019-02-28T02:12:38.102Z,7.69
2019-02-28T02:13:38.523Z,7.78
2019-02-28T02:14:45.786Z,7.74
2019-02-28T02:14:51.979Z,7.69
2019-02-28T02:15:53.308Z,7.74
2019-02-28T02:16:53.993Z,7.66
2019-02-28T02:17:54.980Z,7.74
2019-02-28T02:18:55.104Z,7.66
2019-02-28T02:19:56.339Z,7.69
2019-02-28T02:21:01.837Z,7.72
2019-02-28T02:21:08.513Z,7.8
2019-02-28T02:22:10.986Z,7.77
2019-02-28T02:23:11.793Z,7.8
2019-02-28T02:23:23.557Z,7.78
2019-02-28T02:24:29.847Z,7.75
2019-02-28T02:24:36.172Z,7.8
2019-02-28T02:25:39.337Z,7.74
2019-02-28T02:26:46.907Z,7.72
2019-02-28T02:26:53.515Z,7.83
2019-02-28T02:27:54.991Z,7.87
2019-02-28T02:29:02.499Z,7.81
2019-02-28T02:29:08.278Z,7.84
2019-02-28T02:30:23.549Z,7.88
2019-02-28T02:31:29.841Z,7.91
2019-02-28T02:31:36.386Z,7.9
2019-02-28T02:32:40.324Z,7.87
2019-02-28T02:33:40.641Z,7.84
2019-02-28T02:34:41.945Z,7.85
2019-02-28T02:35:44.712Z,7.93
2019-02-28T02:36:52.923Z,7.85
2019-02-28T02:36:57.295Z,7.84
2019-02-28T02:37:57.507Z,7.87
2019-02-28T02:38:09.634Z,7.88
2019-02-28T02:39:22.797Z,7.85
2019-02-28T02:40:25.307Z,7.85
2019-02-28T02:41:25.283Z,7.78
2019-02-28T02:42:25.876Z,7.61
2019-02-28T02:43:26.575Z,7.74
2019-02-28T02:44:33.039Z,7.81
2019-02-28T02:44:41.586Z,7.77
2019-02-28T02:45:45.322Z,7.7
2019-02-28T02:46:45.281Z,7.75
2019-02-28T02:47:46.515Z,7.66
2019-02-28T02:48:46.753Z,7.67
2019-02-28T02:50:02.379Z,7.62
2019-02-28T02:51:10.530Z,7.64
2019-02-28T02:51:15.121Z,7.61
2019-02-28T02:52:15.846Z,7.67
2019-02-28T02:53:16.384Z,7.69
2019-02-28T02:54:21.541Z,7.62
2019-02-28T02:55:34.131Z,7.69
2019-02-28T02:56:46.430Z,7.59
2019-02-28T02:57:53.409Z,7.56
2019-02-28T02:57:59.332Z,7.59
2019-02-28T02:59:03.596Z,7.61
2019-02-28T03:00:03.283Z,7.56
2019-02-28T03:01:04.398Z,7.55
2019-02-28T03:02:04.646Z,7.53
2019-02-28T03:03:08.830Z,7.46
2019-02-28T03:04:08.518Z,7.53
2019-02-28T03:05:09.635Z,7.44
2019-02-28T03:06:15.586Z,7.44
2019-02-28T03:06:22.206Z,7.44
2019-02-28T03:07:25.790Z,7.47
2019-02-28T03:08:27.598Z,7.47
2019-02-28T03:08:40.805Z,7.51
2019-02-28T03:09:46.069Z,7.62
2019-02-28T03:10:45.082Z,7.53
2019-02-28T03:11:46.327Z,7.55
2019-02-28T03:12:48.159Z,7.59
2019-02-28T03:13:48.467Z,7.56
2019-02-28T03:14:51.669Z,7.51
2019-02-28T03:15:52.191Z,7.47
2019-02-28T03:16:53.633Z,7.46
2019-02-28T03:17:54.633Z,7.44
2019-02-28T03:19:00.028Z,7.33
2019-02-28T03:19:07.860Z,7.41
2019-02-28T03:20:09.901Z,7.41
2019-02-28T03:21:16.831Z,7.32
2019-02-28T03:21:22.758Z,7.36
2019-02-28T03:22:35.485Z,7.25
2019-02-28T03:23:41.814Z,7.28
2019-02-28T03:23:48.473Z,7.26
2019-02-28T03:24:53.515Z,7.31
2019-02-28T03:25:55.016Z,7.33
2019-02-28T03:26:54.970Z,7.37
2019-02-28T03:27:57.789Z,7.43
2019-02-28T03:28:58.321Z,7.47
2019-02-28T03:29:59.490Z,7.43
2019-02-28T03:31:16.823Z,7.43
2019-02-28T03:31:25.645Z,7.41
2019-02-28T03:32:25.547Z,7.43
2019-02-28T03:32:43.919Z,7.44
2019-02-28T03:32:50.639Z,7.46
2019-02-28T03:33:51.048Z,7.41
2019-02-28T03:35:04.193Z,7.47
2019-02-28T03:35:50.064Z,7.47
2019-02-28T03:37:02.215Z,7.58
2019-02-28T03:38:15.366Z,7.55
2019-02-28T03:39:16.104Z,7.7
2019-02-28T03:39:28.553Z,7.61
2019-02-28T03:40:28.737Z,7.69
2019-02-28T03:41:30.592Z,7.78
2019-02-28T03:42:31.384Z,7.66
2019-02-28T03:43:32.915Z,7.67
2019-02-28T03:43:45.156Z,7.67
2019-02-28T03:44:44.664Z,7.67
2019-02-28T03:45:46.208Z,7.59
2019-02-28T03:46:48.954Z,7.61
2019-02-28T03:47:49.961Z,7.61
2019-02-28T03:48:01.702Z,7.72
2019-02-28T03:49:03.059Z,7.74
2019-02-28T03:49:15.825Z,7.7
2019-02-28T03:50:17.124Z,7.62
2019-02-28T03:50:29.049Z,7.7
2019-02-28T03:51:30.775Z,7.67
2019-02-28T03:52:31.750Z,7.77
2019-02-28T03:53:32.704Z,7.75
2019-02-28T03:54:34.535Z,7.72
2019-02-28T03:55:49.263Z,7.66
2019-02-28T03:56:54.703Z,7.66
2019-02-28T03:57:01.514Z,7.7
2019-02-28T03:58:07.105Z,7.64
2019-02-28T03:58:14.343Z,7.67
2019-02-28T03:59:21.149Z,7.64
2019-02-28T03:59:26.121Z,7.77
2019-02-28T04:00:39.199Z,7.62
2019-02-28T04:01:51.930Z,7.81
2019-02-28T04:03:04.849Z,7.85
2019-02-28T04:04:18.442Z,7.88
2019-02-28T04:05:30.413Z,8.05
2019-02-28T04:06:31.750Z,8.14
2019-02-28T04:06:44.075Z,8.09
2019-02-28T04:07:43.869Z,8.08
2019-02-28T04:07:55.856Z,8.01
2019-02-28T04:08:57.353Z,8.21
2019-02-28T04:09:10.377Z,8.17
2019-02-28T04:10:10.794Z,8.2
2019-02-28T04:10:23.708Z,8.21
2019-02-28T04:11:23.138Z,8.23
2019-02-28T04:11:35.455Z,8.2
2019-02-28T04:12:35.881Z,8.27
2019-02-28T04:12:48.111Z,8.31
2019-02-28T04:14:00.757Z,8.31
2019-02-28T04:15:13.093Z,8.38
2019-02-28T04:16:10.968Z,8.2
2019-02-28T04:17:10.961Z,8.2
2019-02-28T04:18:10.935Z,8.23
2019-02-28T04:19:11.459Z,8.23
2019-02-28T04:20:12.536Z,8.16
2019-02-28T04:21:13.744Z,8.16
2019-02-28T04:22:15.265Z,8.09
2019-02-28T04:22:27.482Z,8.09
2019-02-28T04:23:40.614Z,8.03
2019-02-28T04:24:46.199Z,7.93
2019-02-28T04:24:53.121Z,8.09
2019-02-28T04:25:59.202Z,8.09
2019-02-28T04:26:07.436Z,8.02
2019-02-28T04:27:09.638Z,8.13
2019-02-28T04:28:22.233Z,8.11
2019-02-28T04:29:35.769Z,8.08
2019-02-28T04:30:48.899Z,8.06
2019-02-28T04:31:53.469Z,8.11
2019-02-28T04:32:53.439Z,8.2
2019-02-28T04:33:54.714Z,8.11
2019-02-28T04:34:54.694Z,8.08
2019-02-28T04:36:03.157Z,8.18
2019-02-28T04:36:08.575Z,8.13
2019-02-28T04:37:11.221Z,8.14
2019-02-28T04:38:11.645Z,7.91
2019-02-28T04:39:12.800Z,7.93
2019-02-28T04:40:14.224Z,7.95
2019-02-28T04:41:14.634Z,7.96
2019-02-28T04:42:15.327Z,7.9
2019-02-28T04:43:16.293Z,7.9
2019-02-28T04:44:20.137Z,7.91
2019-02-28T04:45:23.269Z,7.83
2019-02-28T04:45:32.576Z,7.83
2019-02-28T04:46:34.497Z,7.67
2019-02-28T04:47:34.198Z,7.69
2019-02-28T04:47:45.965Z,7.67
2019-02-28T04:48:50.148Z,7.66
2019-02-28T04:49:57.705Z,7.61
2019-02-28T04:50:03.168Z,7.67
2019-02-28T04:51:07.310Z,7.64
2019-02-28T04:52:07.723Z,7.58
2019-02-28T04:53:09.001Z,7.56
2019-02-28T04:54:09.734Z,7.55
2019-02-28T04:55:11.162Z,7.55
2019-02-28T04:56:13.327Z,7.48
2019-02-28T04:57:17.275Z,7.44
2019-02-28T04:57:26.341Z,7.43
2019-02-28T04:58:28.000Z,7.36
2019-02-28T04:59:31.512Z,7.39
2019-02-28T04:59:40.744Z,7.33
2019-02-28T05:00:41.741Z,7.36
2019-02-28T05:01:47.226Z,7.4
2019-02-28T05:01:53.923Z,7.37
2019-02-28T05:02:56.553Z,7.44
2019-02-28T05:04:03.744Z,7.46
2019-02-28T05:04:09.010Z,7.41
2019-02-28T05:05:15.020Z,7.53
2019-02-28T05:06:14.434Z,7.47
2019-02-28T05:06:26.230Z,7.53
2019-02-28T05:07:31.388Z,7.48
2019-02-28T05:07:38.401Z,7.55
2019-02-28T05:08:40.840Z,7.55
2019-02-28T05:09:41.829Z,7.51
2019-02-28T05:09:54.596Z,7.59
2019-02-28T05:10:58.169Z,7.74
2019-02-28T05:11:58.858Z,7.72
2019-02-28T05:12:10.355Z,7.7
2019-02-28T05:13:16.253Z,7.67
2019-02-28T05:14:15.990Z,7.75
2019-02-28T05:15:16.803Z,7.75
2019-02-28T05:16:17.328Z,7.81
2019-02-28T05:17:23.898Z,7.81
2019-02-28T05:17:29.640Z,7.87
2019-02-28T05:18:30.751Z,7.88
2019-02-28T05:19:37.535Z,7.88
2019-02-28T05:19:43.492Z,7.81
2019-02-28T05:20:48.046Z,7.91
2019-02-28T05:21:54.326Z,7.85
2019-02-28T05:22:01.063Z,7.9
2019-02-28T05:23:04.031Z,8.03
2019-02-28T05:24:07.652Z,7.9
2019-02-28T05:25:05.204Z,7.93
2019-02-28T05:26:06.616Z,7.9
2019-02-28T05:27:06.752Z,7.9
2019-02-28T05:28:09.068Z,7.85
2019-02-28T05:29:13.569Z,7.9
2019-02-28T05:30:09.702Z,7.85
2019-02-28T05:31:11.137Z,7.81
2019-02-28T05:32:12.105Z,7.78
2019-02-28T05:33:13.077Z,7.8
2019-02-28T05:34:17.800Z,7.64
2019-02-28T05:35:17.501Z,7.62
2019-02-28T05:35:28.633Z,7.62
2019-02-28T05:36:30.331Z,7.64
2019-02-28T05:36:42.100Z,7.72
2019-02-28T05:37:49.539Z,7.67
2019-02-28T05:37:54.556Z,7.62
2019-02-28T05:38:58.303Z,7.67
2019-02-28T05:39:58.563Z,7.67
2019-02-28T05:40:11.609Z,7.7
2019-02-28T05:41:17.002Z,7.67
2019-02-28T05:42:20.221Z,7.77
2019-02-28T05:42:30.216Z,7.69
2019-02-28T05:43:33.611Z,7.62
2019-02-28T05:44:37.372Z,7.64
2019-02-28T05:44:46.361Z,7.59
2019-02-28T05:45:51.038Z,7.51
2019-02-28T05:46:50.455Z,7.4
2019-02-28T05:47:50.704Z,7.32
2019-02-28T05:48:51.675Z,7.19
2019-02-28T05:49:52.924Z,7.25
2019-02-28T05:50:55.094Z,7.22
2019-02-28T05:52:00.812Z,7.25
2019-02-28T05:52:08.841Z,7.23
2019-02-28T05:53:10.835Z,7.23
2019-02-28T05:54:17.984Z,7.23
2019-02-28T05:54:23.313Z,7.23
2019-02-28T05:55:26.923Z,7.4
2019-02-28T05:56:34.805Z,7.39
2019-02-28T05:56:39.706Z,7.37
2019-02-28T05:57:45.876Z,7.43
2019-02-28T05:58:45.291Z,7.43
2019-02-28T05:58:57.910Z,7.39
2019-02-28T06:00:04.239Z,7.55
2019-02-28T06:00:10.710Z,7.59
2019-02-28T06:01:13.655Z,7.55
2019-02-28T06:02:14.350Z,7.53
2019-02-28T06:02:26.705Z,7.51
2019-02-28T06:03:30.950Z,7.55
2019-02-28T06:04:28.643Z,7.53
2019-02-28T06:05:29.056Z,7.5
2019-02-28T06:06:30.478Z,7.47
2019-02-28T06:07:30.945Z,7.41
2019-02-28T06:08:31.917Z,7.33
2019-02-28T06:08:44.240Z,7.32
2019-02-28T06:09:50.367Z,7.37
2019-02-28T06:09:57.401Z,7.39
2019-02-28T06:11:02.198Z,7.22
2019-02-28T06:12:02.896Z,7.22
2019-02-28T06:12:14.953Z,7.26
2019-02-28T06:13:19.665Z,7.31
2019-02-28T06:14:19.355Z,7.33
2019-02-28T06:15:21.326Z,7.33
2019-02-28T06:16:21.911Z,7.4
2019-02-28T06:17:23.114Z,7.33
2019-02-28T06:18:35.850Z,7.37
2019-02-28T06:19:36.555Z,7.43
2019-02-28T06:19:48.325Z,7.36
2019-02-28T06:20:53.494Z,7.39
2019-02-28T06:21:01.222Z,7.41
2019-02-28T06:22:02.027Z,7.37
2019-02-28T06:23:03.011Z,7.39
2019-02-28T06:23:16.054Z,7.36
2019-02-28T06:24:17.063Z,7.39
2019-02-28T06:25:30.104Z,7.44
2019-02-28T06:26:33.694Z,7.5
2019-02-28T06:27:51.516Z,7.56
2019-02-28T06:27:59.197Z,7.66
2019-02-28T06:28:58.590Z,7.67
2019-02-28T06:29:12.919Z,7.83
2019-02-28T06:30:14.022Z,7.91
2019-02-28T06:31:16.260Z,8.17
2019-02-28T06:32:16.678Z,8.42
2019-02-28T06:32:28.726Z,8.5
2019-02-28T06:33:35.730Z,8.77
2019-02-28T06:33:41.292Z,8.78
2019-02-28T06:34:43.859Z,8.96
2019-02-28T06:35:44.882Z,9.09
2019-02-28T06:35:57.492Z,9.27
2019-02-28T06:37:00.316Z,9.26
2019-02-28T06:37:10.555Z,9.24
2019-02-28T06:38:11.530Z,9.18
2019-02-28T06:39:12.557Z,9.12
2019-02-28T06:40:13.360Z,9
2019-02-28T06:41:14.362Z,9.08
2019-02-28T06:42:14.647Z,9.13
2019-02-28T06:43:18.706Z,9.09
2019-02-28T06:44:16.191Z,9.34
2019-02-28T06:45:17.170Z,9.52
2019-02-28T06:46:17.184Z,9.51
2019-02-28T06:47:17.888Z,9.51
2019-02-28T06:48:31.254Z,9.62
2019-02-28T06:49:32.026Z,9.62
2019-02-28T06:50:32.450Z,9.84
2019-02-28T06:51:33.874Z,10.02
2019-02-28T06:52:34.414Z,10.23
2019-02-28T06:53:37.175Z,10.45
2019-02-28T06:54:42.701Z,10.62
2019-02-28T06:55:48.072Z,10.57
2019-02-28T06:55:54.465Z,10.64
2019-02-28T06:56:56.321Z,10.68
2019-02-28T06:58:01.072Z,10.65
2019-02-28T06:59:01.045Z,10.57
2019-02-28T07:00:02.293Z,10.62
2019-02-28T07:01:03.021Z,10.46
2019-02-28T07:02:04.297Z,10.25
2019-02-28T07:03:06.928Z,10.3
2019-02-28T07:04:07.086Z,10.39
2019-02-28T07:04:18.820Z,10.46
2019-02-28T07:05:32.200Z,10.53
2019-02-28T07:06:37.434Z,10.55
2019-02-28T07:06:44.371Z,10.58
2019-02-28T07:07:51.165Z,10.48
2019-02-28T07:07:56.944Z,10.43
2019-02-28T07:09:04.061Z,10.39
2019-02-28T07:09:10.325Z,10.33
2019-02-28T07:10:14.126Z,10.34
2019-02-28T07:11:15.055Z,10.42
2019-02-28T07:12:15.756Z,10.21
2019-02-28T07:13:15.749Z,10.21
2019-02-28T07:14:17.177Z,10.25
2019-02-28T07:15:24.978Z,10.53
2019-02-28T07:15:29.343Z,10.53
2019-02-28T07:16:42.341Z,10.68
2019-02-28T07:17:48.108Z,10.65
2019-02-28T07:17:56.858Z,10.68
2019-02-28T07:18:57.551Z,10.62
2019-02-28T07:20:04.697Z,10.77
2019-02-28T07:20:10.348Z,10.77
2019-02-28T07:21:10.757Z,10.76
2019-02-28T07:22:11.323Z,10.71
2019-02-28T07:22:22.817Z,10.77
2019-02-28T07:23:26.640Z,10.84
2019-02-28T07:23:35.811Z,10.9
2019-02-28T07:24:39.336Z,11.01
2019-02-28T07:25:40.036Z,11.41
2019-02-28T07:25:53.830Z,11.48
2019-02-28T07:26:54.256Z,11.85
2019-02-28T07:27:55.814Z,12.48
2019-02-28T07:28:55.514Z,13.09
2019-02-28T07:29:56.943Z,13.95
2019-02-28T07:30:58.519Z,14.9
2019-02-28T07:32:02.857Z,15.69
2019-02-28T07:33:15.663Z,16.65
2019-02-28T07:34:28.951Z,16.99
2019-02-28T07:35:42.583Z,17.44
2019-02-28T07:36:46.943Z,17.66
2019-02-28T07:37:55.135Z,18
2019-02-28T07:37:59.671Z,17.97
2019-02-28T07:39:05.926Z,18.16
2019-02-28T07:39:12.077Z,18.16
2019-02-28T07:40:18.539Z,18.24
2019-02-28T07:40:24.651Z,18.15
2019-02-28T07:41:28.647Z,18.26
2019-02-28T07:42:29.652Z,18.23
2019-02-28T07:43:30.691Z,18.11
2019-02-28T07:44:31.962Z,18.06
2019-02-28T07:45:35.277Z,17.97
2019-02-28T07:46:48.548Z,17.72
2019-02-28T07:47:53.881Z,17.32
2019-02-28T07:48:53.652Z,17.04
2019-02-28T07:49:54.658Z,16.72
2019-02-28T07:50:54.925Z,16.4
2019-02-28T07:51:59.207Z,16.16
2019-02-28T07:52:59.472Z,16.17
2019-02-28T07:54:03.095Z,16.12
2019-02-28T07:55:03.674Z,16.39
2019-02-28T07:56:09.455Z,16.68
2019-02-28T07:56:16.247Z,16.65
2019-02-28T07:57:19.039Z,16.8
2019-02-28T07:58:20.402Z,17.01
2019-02-28T07:59:24.632Z,17.2
2019-02-28T07:59:40.650Z,17.22
2019-02-28T07:59:46.763Z,17.35
2019-02-28T08:01:00.147Z,17.76
2019-02-28T08:02:04.997Z,18
2019-02-28T08:02:11.750Z,18.05
2019-02-28T08:03:13.339Z,18.16
2019-02-28T08:04:20.653Z,18.42
2019-02-28T08:04:27.548Z,18.39
2019-02-28T08:05:32.432Z,18.55
2019-02-28T08:05:39.426Z,18.6
2019-02-28T08:06:45.011Z,18.33
2019-02-28T08:06:55.612Z,18.36
2019-02-28T08:07:54.172Z,18.41
2019-02-28T08:08:54.897Z,18.33
2019-02-28T08:09:56.344Z,18.33
2019-02-28T08:10:56.525Z,18.7
2019-02-28T08:11:58.269Z,18.6
2019-02-28T08:12:58.812Z,18.51
2019-02-28T08:13:59.528Z,18.79
2019-02-28T08:15:00.400Z,18.48
2019-02-28T08:16:01.867Z,18.57
2019-02-28T08:17:10.301Z,18.96
2019-02-28T08:17:14.737Z,18.94
2019-02-28T08:18:20.711Z,18.7
2019-02-28T08:18:27.579Z,18.67
2019-02-28T08:19:29.334Z,18.57
2019-02-28T08:20:35.834Z,18.97
2019-02-28T08:20:42.248Z,19.05
2019-02-28T08:21:57.575Z,19.19
2019-02-28T08:23:01.636Z,19.32
2019-02-28T08:23:09.781Z,19.3
2019-02-28T08:24:10.010Z,19.32
2019-02-28T08:25:11.002Z,19.67
2019-02-28T08:26:24.149Z,19.92
2019-02-28T08:27:27.782Z,20.18
2019-02-28T08:28:27.069Z,20.55
2019-02-28T08:28:40.488Z,20.6
2019-02-28T08:29:47.309Z,20.73
2019-02-28T08:29:53.495Z,20.8
2019-02-28T08:30:57.123Z,21.14
2019-02-28T08:32:12.525Z,21.74
2019-02-28T08:32:24.830Z,21.89
2019-02-28T08:33:22.927Z,22.04
2019-02-28T08:34:25.919Z,22.51
2019-02-28T08:35:26.374Z,22.84
2019-02-28T08:35:38.674Z,22.8
2019-02-28T08:36:39.873Z,22.37
2019-02-28T08:36:51.741Z,22.3
2019-02-28T08:37:58.936Z,22.43
2019-02-28T08:38:03.726Z,22.37
2019-02-28T08:39:17.047Z,22.14
2019-02-28T08:40:20.212Z,21.83
2019-02-28T08:40:33.368Z,21.77
2019-02-28T08:40:52.783Z,21.6
2019-02-28T08:41:00.399Z,21.6
2019-02-28T08:41:12.030Z,21.6
2019-02-28T08:42:10.385Z,21.05
2019-02-28T08:43:15.056Z,20.59
2019-02-28T08:44:14.776Z,20.32
2019-02-28T08:44:28.630Z,20.32
2019-02-28T08:45:36.020Z,20.15
2019-02-28T08:45:41.922Z,20.12
2019-02-28T08:46:48.149Z,20.58
2019-02-28T08:46:53.991Z,20.6
2019-02-28T08:47:57.781Z,21.13
2019-02-28T08:48:58.275Z,21.8
2019-02-28T08:49:58.709Z,22.01
2019-02-28T08:50:58.985Z,22.36
2019-02-28T08:52:06.695Z,22.91
2019-02-28T08:52:11.424Z,22.71
2019-02-28T08:53:17.269Z,22.74
2019-02-28T08:53:25.106Z,22.84
2019-02-28T08:54:28.968Z,23.13
2019-02-28T08:55:31.213Z,23.42
2019-02-28T08:56:33.381Z,23.59
2019-02-28T08:57:33.540Z,24.06
2019-02-28T08:58:37.577Z,24.5
2019-02-28T08:58:48.934Z,24.5
2019-02-28T08:59:47.087Z,24.62
2019-02-28T09:00:47.807Z,24.68
2019-02-28T09:01:48.535Z,24.99
2019-02-28T09:02:55.454Z,25.3
2019-02-28T09:03:02.402Z,25.3
2019-02-28T09:04:06.877Z,25.55
2019-02-28T09:05:07.711Z,25.86
2019-02-28T09:06:08.798Z,26.03
2019-02-28T09:07:09.505Z,26.1
2019-02-28T09:07:22.972Z,26.3
2019-02-28T09:08:26.735Z,25.76
2019-02-28T09:09:24.172Z,25.99
2019-02-28T09:10:25.449Z,25.63
2019-02-28T09:11:26.092Z,25.62
2019-02-28T09:12:26.204Z,25.58
2019-02-28T09:12:38.035Z,25.58
2019-02-28T09:13:44.580Z,25.37
2019-02-28T09:13:50.822Z,25.44
2019-02-28T09:14:56.980Z,25.14
2019-02-28T09:15:03.904Z,25.21
2019-02-28T09:16:06.740Z,25
2019-02-28T09:17:07.467Z,25.19
2019-02-28T09:18:09.174Z,25.15
2019-02-28T09:19:09.515Z,24.94
2019-02-28T09:20:11.929Z,24.47
2019-02-28T09:21:15.370Z,24.18
2019-02-28T09:21:27.095Z,24.25
2019-02-28T09:22:29.018Z,23.74
2019-02-28T09:23:29.839Z,23.29
2019-02-28T09:24:30.297Z,22.91
2019-02-28T09:25:32.127Z,22.56
2019-02-28T09:26:32.886Z,22.93
2019-02-28T09:27:40.626Z,23.18
2019-02-28T09:27:45.488Z,23.23
2019-02-28T09:28:49.332Z,23.1
2019-02-28T09:29:56.858Z,23.26
2019-02-28T09:30:02.491Z,23.23
2019-02-28T09:31:07.064Z,23.52
2019-02-28T09:32:07.058Z,23.82
2019-02-28T09:32:20.212Z,23.94
2019-02-28T09:33:24.809Z,24.26
2019-02-28T09:34:26.523Z,24.62
2019-02-28T09:35:30.376Z,24.84
2019-02-28T09:35:53.453Z,24.99
2019-02-28T09:36:58.096Z,25.22
2019-02-28T09:37:05.880Z,25.33
2019-02-28T09:38:14.369Z,25.55
2019-02-28T09:38:21.191Z,25.56
2019-02-28T09:39:07.961Z,25.66
2019-02-28T09:40:09.216Z,25.81
2019-02-28T09:41:11.147Z,26.39
2019-02-28T09:42:16.811Z,26.79
2019-02-28T09:42:23.046Z,26.81
2019-02-28T09:43:26.133Z,26.83
2019-02-28T09:44:27.285Z,26.67
2019-02-28T09:44:39.140Z,26.53
2019-02-28T09:45:44.929Z,26.1
2019-02-28T09:45:54.456Z,26.06
2019-02-28T09:46:53.112Z,25.54
2019-02-28T09:48:02.276Z,25.37
2019-02-28T09:48:07.014Z,25.16
2019-02-28T09:49:14.060Z,24.99
2019-02-28T09:49:20.583Z,24.88
2019-02-28T09:50:24.411Z,24.55
2019-02-28T09:51:24.577Z,24.28
2019-02-28T09:52:25.014Z,23.81
2019-02-28T09:53:25.748Z,23.18
2019-02-28T09:54:26.512Z,23.11
2019-02-28T09:55:26.946Z,22.83
2019-02-28T09:56:27.935Z,22.63
2019-02-28T09:57:30.182Z,22.36
2019-02-28T09:58:31.206Z,22.03
2019-02-28T09:59:39.144Z,21.94
2019-02-28T09:59:44.099Z,21.85
2019-02-28T10:00:52.163Z,21.68
2019-02-28T10:00:57.119Z,21.65
2019-02-28T10:02:11.394Z,21.58
2019-02-28T10:03:24.771Z,21.53
2019-02-28T10:04:32.065Z,21.53
2019-02-28T10:04:38.073Z,21.45
2019-02-28T10:05:44.016Z,21.38
2019-02-28T10:05:50.804Z,21.5
2019-02-28T10:06:53.401Z,21.13
2019-02-28T10:07:54.565Z,21.04
2019-02-28T10:08:08.400Z,20.96
2019-02-28T10:09:10.916Z,21.04
2019-02-28T10:10:13.777Z,20.96
2019-02-28T10:10:23.501Z,20.93
2019-02-28T10:11:24.058Z,20.82
2019-02-28T10:11:36.478Z,20.93
2019-02-28T10:12:43.951Z,20.88
2019-02-28T10:12:49.884Z,20.95
2019-02-28T10:13:55.083Z,21.19
2019-02-28T10:14:01.876Z,21.19
2019-02-28T10:15:08.262Z,21.48
2019-02-28T10:15:14.986Z,21.59
2019-02-28T10:16:18.650Z,21.5
2019-02-28T10:17:18.955Z,21.56
2019-02-28T10:18:19.152Z,21.59
2019-02-28T10:19:20.465Z,21.69
2019-02-28T10:20:34.576Z,22.12
2019-02-28T10:21:40.350Z,22.26
2019-02-28T10:22:41.059Z,22.36
2019-02-28T10:22:52.935Z,22.37
2019-02-28T10:23:58.852Z,22.61
2019-02-28T10:24:06.772Z,22.52
2019-02-28T10:25:08.148Z,22.61
2019-02-28T10:26:09.134Z,22.49
2019-02-28T10:27:10.139Z,22.23
2019-02-28T10:28:10.576Z,22.44
2019-02-28T10:29:11.561Z,22.52
2019-02-28T10:30:17.501Z,22.25
2019-02-28T10:30:36.794Z,22.18
2019-02-28T10:31:40.072Z,22.26
2019-02-28T10:32:45.024Z,22.07
2019-02-28T10:33:45.006Z,22.07
2019-02-28T10:34:45.997Z,22.15
2019-02-28T10:35:46.706Z,22.12
2019-02-28T10:36:49.633Z,22.16
2019-02-28T10:37:50.624Z,22.15
2019-02-28T10:38:02.509Z,22.07
2019-02-28T10:39:10.679Z,22.19
2019-02-28T10:39:15.662Z,22.25
2019-02-28T10:40:20.262Z,22.22
2019-02-28T10:41:20.255Z,22.4
2019-02-28T10:41:32.466Z,22.37
2019-02-28T10:42:33.275Z,22.36
2019-02-28T10:42:45.101Z,22.47
2019-02-28T10:43:58.744Z,22.28
2019-02-28T10:44:59.744Z,22.26
2019-02-28T10:45:11.618Z,22.14
2019-02-28T10:46:24.750Z,22.01
2019-02-28T10:47:30.758Z,22.14
2019-02-28T10:48:30.194Z,22.58
2019-02-28T10:49:31.188Z,22.77
2019-02-28T10:50:34.657Z,22.77
2019-02-28T10:51:35.109Z,22.8
2019-02-28T10:52:36.111Z,22.68
2019-02-28T10:53:40.939Z,22.76
2019-02-28T10:54:41.934Z,22.55
2019-02-28T10:54:54.815Z,22.7
2019-02-28T10:55:59.862Z,22.7
2019-02-28T10:57:00.129Z,22.62
2019-02-28T10:57:13.011Z,22.55
2019-02-28T10:58:17.107Z,22.41
2019-02-28T10:59:17.273Z,22.55
2019-02-28T10:59:28.981Z,22.47
2019-02-28T11:00:34.470Z,22.36
2019-02-28T11:01:33.971Z,22.07
2019-02-28T11:02:34.698Z,22.06
2019-02-28T11:03:35.959Z,21.85
2019-02-28T11:04:36.406Z,21.75
2019-02-28T11:04:48.271Z,21.84
2019-02-28T11:05:56.302Z,21.84
2019-02-28T11:06:03.556Z,21.8
2019-02-28T11:06:16.427Z,21.92
2019-02-28T11:06:29.656Z,21.8
2019-02-28T11:07:25.872Z,21.6
2019-02-28T11:08:26.789Z,21.7
2019-02-28T11:09:27.732Z,21.77
2019-02-28T11:10:40.597Z,21.78
2019-02-28T11:11:46.935Z,21.63